Time;durP1;ratioP1;P1;durP2;ratioP2;P2;SDS_P1;SDS_P2;PMS_P1;PMS_P2;Temp;Humidity;BMP_temperature;BMP_pressure;BME280_temperature;BME280_humidity;BME280_pressure;Samples;Min_cycle;Max_cycle;Signal;HPM_P1;HPM_P2
2021/07/19 00:00:30;;;;;;;14.67;10.70;;;;;;;;;;5115879;28;20777;-67
2021/07/19 00:02:57;;;;;;;18.70;12.10;;;;;;;;;;5113738;27;20447;-67
2021/07/19 00:05:24;;;;;;;14.37;10.77;;;;;;;;;;5130398;27;20411;-69
2021/07/19 00:07:50;;;;;;;20.37;10.70;;;;;;;;;;5096129;28;20507;-68
2021/07/19 00:10:17;;;;;;;17.80;10.00;;;;;;;;;;5097792;28;20476;-68
2021/07/19 00:12:44;;;;;;;20.07;11.70;;;;;;;;;;5116378;28;20399;-68
2021/07/19 00:15:12;;;;;;;15.17;12.77;;;;;;;;;;5115298;28;20426;-69
2021/07/19 00:17:38;;;;;;;16.30;11.13;;;;;;;;;;5116573;28;20451;-68
2021/07/19 00:20:05;;;;;;;17.63;10.27;;;;;;;;;;5115641;28;20399;-69
2021/07/19 00:22:31;;;;;;;14.97;10.30;;;;;;;;;;5096402;28;20422;-67
2021/07/19 00:24:57;;;;;;;16.90;11.37;;;;;;;;;;5095805;28;20392;-67
2021/07/19 00:27:23;;;;;;;17.50;12.67;;;;;;;;;;5095561;28;20538;-69
2021/07/19 00:29:49;;;;;;;23.03;13.63;;;;;;;;;;5095480;28;20480;-67
2021/07/19 00:32:15;;;;;;;20.93;12.03;;;;;;;;;;5094314;28;20426;-68
2021/07/19 00:34:41;;;;;;;17.03;12.00;;;;;;;;;;5095956;28;20812;-68
2021/07/19 00:37:07;;;;;;;16.10;11.20;;;;;;;;;;5111437;28;20473;-68
2021/07/19 00:39:33;;;;;;;20.03;11.80;;;;;;;;;;5115875;28;20399;-68
2021/07/19 00:41:59;;;;;;;16.73;11.10;;;;;;;;;;5100336;28;20424;-68
2021/07/19 00:44:25;;;;;;;15.97;10.83;;;;;;;;;;5095607;28;20396;-68
2021/07/19 00:46:52;;;;;;;16.70;11.83;;;;;;;;;;5108380;28;20454;-67
2021/07/19 00:49:19;;;;;;;18.13;11.87;;;;;;;;;;5115602;28;20813;-67
2021/07/19 00:51:45;;;;;;;16.17;11.60;;;;;;;;;;5113867;28;20961;-68
2021/07/19 00:54:12;;;;;;;22.30;11.57;;;;;;;;;;5115731;28;20960;-67
2021/07/19 00:56:38;;;;;;;17.57;12.17;;;;;;;;;;5114867;28;20989;-68
2021/07/19 00:59:07;;;;;;;16.83;11.50;;;;;;;;;;5116132;28;20438;-68
2021/07/19 01:01:34;;;;;;;15.03;11.87;;;;;;;;;;5114809;28;20426;-67
2021/07/19 01:04:01;;;;;;;17.33;11.67;;;;;;;;;;5115632;28;20403;-67
2021/07/19 01:06:29;;;;;;;17.90;11.57;;;;;;;;;;5105327;28;20451;-67
2021/07/19 01:08:57;;;;;;;20.47;12.10;;;;;;;;;;5099284;28;20934;-67
2021/07/19 01:11:23;;;;;;;17.83;12.20;;;;;;;;;;5106117;28;20458;-67
2021/07/19 01:13:50;;;;;;;21.57;11.60;;;;;;;;;;5095159;28;20541;-67
2021/07/19 01:16:16;;;;;;;17.50;12.37;;;;;;;;;;5101816;28;20462;-67
2021/07/19 01:18:42;;;;;;;19.03;12.40;;;;;;;;;;5106992;28;20451;-67
2021/07/19 01:21:16;;;;;;;19.27;12.37;;;;;;;;;;5097504;28;20924;-67
2021/07/19 01:23:48;;;;;;;15.30;11.60;;;;;;;;;;5094879;28;20815;-67
2021/07/19 01:26:23;;;;;;;20.70;12.17;;;;;;;;;;5094306;28;20916;-67
2021/07/19 01:28:53;;;;;;;16.53;12.43;;;;;;;;;;5094893;28;20893;-68
2021/07/19 01:31:24;;;;;;;18.47;12.27;;;;;;;;;;5094683;28;20411;-67
2021/07/19 01:33:52;;;;;;;19.40;12.70;;;;;;;;;;5095035;28;20493;-67
2021/07/19 01:36:20;;;;;;;17.83;12.00;;;;;;;;;;5095430;28;20478;-67
2021/07/19 01:38:46;;;;;;;19.20;12.07;;;;;;;;;;5115179;28;20403;-67
2021/07/19 01:41:13;;;;;;;19.27;11.97;;;;;;;;;;5113929;28;20427;-67
2021/07/19 01:43:39;;;;;;;17.57;12.73;;;;;;;;;;5114139;28;20395;-67
2021/07/19 01:46:06;;;;;;;19.60;13.27;;;;;;;;;;5114434;28;20418;-67
2021/07/19 01:48:33;;;;;;;16.00;12.00;;;;;;;;;;5096096;28;20474;-67
2021/07/19 01:51:00;;;;;;;17.20;11.77;;;;;;;;;;5094089;28;20500;-67
2021/07/19 01:53:29;;;;;;;19.27;12.40;;;;;;;;;;5124514;27;20422;-67
2021/07/19 01:55:55;;;;;;;14.33;11.17;;;;;;;;;;5134855;27;20406;-67
2021/07/19 01:58:22;;;;;;;16.77;11.97;;;;;;;;;;5097172;27;20452;-67
2021/07/19 02:00:48;;;;;;;16.03;11.33;;;;;;;;;;5094318;28;20403;-67
2021/07/19 02:03:14;;;;;;;18.03;11.53;;;;;;;;;;5110355;28;20431;-67
2021/07/19 02:05:42;;;;;;;15.30;10.83;;;;;;;;;;5114859;28;20752;-67
2021/07/19 02:08:09;;;;;;;12.23;9.93;;;;;;;;;;5113964;28;20443;-67
2021/07/19 02:10:35;;;;;;;17.70;11.67;;;;;;;;;;5115319;28;20875;-67
2021/07/19 02:13:04;;;;;;;18.63;11.77;;;;;;;;;;5113696;28;20473;-67
2021/07/19 02:15:30;;;;;;;17.27;11.57;;;;;;;;;;5118288;28;20399;-68
2021/07/19 02:17:58;;;;;;;21.00;11.93;;;;;;;;;;5126852;28;20463;-67
2021/07/19 02:20:25;;;;;;;19.50;11.13;;;;;;;;;;5127511;28;20407;-68
2021/07/19 02:22:51;;;;;;;16.67;11.60;;;;;;;;;;5124194;28;20945;-67
2021/07/19 02:25:17;;;;;;;17.23;11.63;;;;;;;;;;5121772;28;20517;-67
2021/07/19 02:27:45;;;;;;;16.90;11.67;;;;;;;;;;5122037;28;20828;-67
2021/07/19 02:30:12;;;;;;;22.53;12.80;;;;;;;;;;5118383;28;20407;-67
2021/07/19 02:32:42;;;;;;;17.10;12.03;;;;;;;;;;5114591;28;20458;-67
2021/07/19 02:35:09;;;;;;;20.50;12.10;;;;;;;;;;5115723;28;20400;-67
2021/07/19 02:37:36;;;;;;;18.00;12.50;;;;;;;;;;5113137;28;20470;-67
2021/07/19 02:40:02;;;;;;;15.40;10.90;;;;;;;;;;5113834;28;20407;-67
2021/07/19 02:42:28;;;;;;;16.80;10.70;;;;;;;;;;5104416;28;20424;-67
2021/07/19 02:44:54;;;;;;;14.50;10.00;;;;;;;;;;5094011;28;20778;-67
2021/07/19 02:47:21;;;;;;;19.03;11.37;;;;;;;;;;5091996;28;20603;-67
2021/07/19 02:49:47;;;;;;;16.37;11.90;;;;;;;;;;5100368;28;20456;-67
2021/07/19 02:52:13;;;;;;;14.23;11.40;;;;;;;;;;5100651;28;20843;-67
2021/07/19 02:54:40;;;;;;;17.43;10.87;;;;;;;;;;5112981;28;20409;-67
2021/07/19 02:57:07;;;;;;;14.40;10.13;;;;;;;;;;5114550;27;20459;-67
2021/07/19 02:59:33;;;;;;;22.00;10.60;;;;;;;;;;5113354;28;20396;-67
2021/07/19 03:01:59;;;;;;;15.80;11.50;;;;;;;;;;5109198;28;20416;-67
2021/07/19 03:04:27;;;;;;;18.40;12.23;;;;;;;;;;5093066;28;20397;-67
2021/07/19 03:06:53;;;;;;;15.03;10.90;;;;;;;;;;5095338;28;20778;-67
2021/07/19 03:09:20;;;;;;;16.17;11.90;;;;;;;;;;5113381;28;20771;-67
2021/07/19 03:11:50;;;;;;;18.80;11.90;;;;;;;;;;5112043;28;20452;-67
2021/07/19 03:14:19;;;;;;;20.30;11.87;;;;;;;;;;5113691;28;20410;-67
2021/07/19 03:16:46;;;;;;;14.03;10.87;;;;;;;;;;5111931;28;20442;-67
2021/07/19 03:19:14;;;;;;;16.70;10.97;;;;;;;;;;5113250;28;20410;-67
2021/07/19 03:21:41;;;;;;;20.50;12.80;;;;;;;;;;5112281;28;20756;-69
2021/07/19 03:24:09;;;;;;;19.83;12.90;;;;;;;;;;5113607;28;20431;-68
2021/07/19 03:26:36;;;;;;;16.33;11.40;;;;;;;;;;5113460;28;20418;-67
2021/07/19 03:29:03;;;;;;;15.83;11.70;;;;;;;;;;5092975;28;20431;-68
2021/07/19 03:31:30;;;;;;;19.37;12.67;;;;;;;;;;5103934;28;20501;-69
2021/07/19 03:33:56;;;;;;;18.87;12.00;;;;;;;;;;5094770;28;20416;-68
2021/07/19 03:36:22;;;;;;;18.80;12.80;;;;;;;;;;5093019;28;20459;-67
2021/07/19 03:38:49;;;;;;;22.50;13.43;;;;;;;;;;5109914;28;20923;-67
2021/07/19 03:41:15;;;;;;;24.60;12.03;;;;;;;;;;5113435;28;20800;-68
2021/07/19 03:43:43;;;;;;;17.90;12.10;;;;;;;;;;5112117;28;20427;-67
2021/07/19 03:46:09;;;;;;;18.93;12.30;;;;;;;;;;5113025;28;20415;-67
2021/07/19 03:48:36;;;;;;;24.53;14.83;;;;;;;;;;5097270;28;20561;-67
2021/07/19 03:51:02;;;;;;;19.53;12.60;;;;;;;;;;5092694;28;20425;-68
2021/07/19 03:53:29;;;;;;;18.43;13.00;;;;;;;;;;5106467;28;20428;-67
2021/07/19 03:55:55;;;;;;;16.50;12.30;;;;;;;;;;5113548;28;20423;-67
2021/07/19 03:58:21;;;;;;;16.40;12.43;;;;;;;;;;5115769;28;20989;-67
2021/07/19 04:00:47;;;;;;;13.60;10.40;;;;;;;;;;5129630;28;20427;-67
2021/07/19 04:03:25;;;;;;;16.20;12.67;;;;;;;;;;5123959;28;20427;-67
2021/07/19 04:06:00;;;;;;;13.67;11.00;;;;;;;;;;5113694;28;20447;-67
2021/07/19 04:08:27;;;;;;;17.63;11.77;;;;;;;;;;5115933;28;20421;-68
2021/07/19 04:10:54;;;;;;;19.00;13.73;;;;;;;;;;5117034;28;20422;-68
2021/07/19 04:13:21;;;;;;;14.40;11.03;;;;;;;;;;5115617;28;20427;-68
2021/07/19 04:15:50;;;;;;;14.83;11.03;;;;;;;;;;5116647;28;20399;-68
2021/07/19 04:18:16;;;;;;;13.13;10.63;;;;;;;;;;5105156;28;20871;-68
2021/07/19 04:20:42;;;;;;;13.13;10.87;;;;;;;;;;5096352;28;20884;-68
2021/07/19 04:23:10;;;;;;;14.73;10.33;;;;;;;;;;5095846;28;20432;-68
2021/07/19 04:25:37;;;;;;;16.70;11.80;;;;;;;;;;5096117;28;20432;-68
2021/07/19 04:28:03;;;;;;;16.20;12.03;;;;;;;;;;5105058;28;20846;-67
2021/07/19 04:30:33;;;;;;;15.83;11.87;;;;;;;;;;5116346;28;20438;-67
2021/07/19 04:32:59;;;;;;;15.13;10.77;;;;;;;;;;5114622;28;20458;-67
2021/07/19 04:35:25;;;;;;;14.60;11.40;;;;;;;;;;5116394;28;20429;-67
2021/07/19 04:37:53;;;;;;;14.23;10.53;;;;;;;;;;5115011;28;20503;-67
2021/07/19 04:40:19;;;;;;;16.73;11.27;;;;;;;;;;5116134;28;20406;-67
2021/07/19 04:42:45;;;;;;;16.50;11.37;;;;;;;;;;5114649;28;20399;-67
2021/07/19 04:45:12;;;;;;;14.50;11.23;;;;;;;;;;5115969;28;20436;-67
2021/07/19 04:47:38;;;;;;;14.30;9.77;;;;;;;;;;5115367;28;20423;-67
2021/07/19 04:50:05;;;;;;;13.87;10.37;;;;;;;;;;5115449;28;20526;-68
2021/07/19 04:52:31;;;;;;;11.53;9.47;;;;;;;;;;5116163;28;20423;-67
2021/07/19 04:54:58;;;;;;;13.17;9.90;;;;;;;;;;5114594;28;20919;-67
2021/07/19 04:57:25;;;;;;;11.37;9.83;;;;;;;;;;5114514;28;20455;-67
2021/07/19 04:59:52;;;;;;;11.60;9.50;;;;;;;;;;5128047;27;20438;-67
2021/07/19 05:02:19;;;;;;;12.60;8.90;;;;;;;;;;5114312;28;20418;-67
2021/07/19 05:04:49;;;;;;;14.90;9.80;;;;;;;;;;5114698;28;20422;-67
2021/07/19 05:07:16;;;;;;;11.53;9.37;;;;;;;;;;5115539;28;20418;-67
2021/07/19 05:09:43;;;;;;;10.97;8.03;;;;;;;;;;5114241;28;20435;-67
2021/07/19 05:12:14;;;;;;;13.67;9.40;;;;;;;;;;5115733;28;20403;-67
2021/07/19 05:14:41;;;;;;;11.90;8.33;;;;;;;;;;5100771;27;20424;-67
2021/07/19 05:17:11;;;;;;;11.60;8.70;;;;;;;;;;5093935;28;20456;-67
2021/07/19 05:19:41;;;;;;;11.50;9.03;;;;;;;;;;5109800;28;20468;-67
2021/07/19 05:22:10;;;;;;;11.87;8.20;;;;;;;;;;5115593;28;20793;-67
2021/07/19 05:24:36;;;;;;;11.67;8.20;;;;;;;;;;5114255;28;20772;-67
2021/07/19 05:27:02;;;;;;;9.53;7.53;;;;;;;;;;5115288;28;20424;-67
2021/07/19 05:29:29;;;;;;;12.90;8.23;;;;;;;;;;5114239;28;20531;-67
2021/07/19 05:31:55;;;;;;;9.70;7.90;;;;;;;;;;5114096;28;20422;-67
2021/07/19 05:34:21;;;;;;;15.70;7.13;;;;;;;;;;5102462;28;20431;-67
2021/07/19 05:36:47;;;;;;;10.10;8.20;;;;;;;;;;5094798;28;20817;-67
2021/07/19 05:39:13;;;;;;;10.63;7.80;;;;;;;;;;5094615;28;20514;-67
2021/07/19 05:41:39;;;;;;;11.90;7.47;;;;;;;;;;5094775;28;20392;-67
2021/07/19 05:44:05;;;;;;;11.50;8.30;;;;;;;;;;5094373;28;20852;-67
2021/07/19 05:46:31;;;;;;;10.07;7.83;;;;;;;;;;5094729;28;20420;-67
2021/07/19 05:48:57;;;;;;;8.87;7.93;;;;;;;;;;5101806;28;20430;-67
2021/07/19 05:51:23;;;;;;;10.00;8.70;;;;;;;;;;5114592;28;20435;-67
2021/07/19 05:53:49;;;;;;;10.70;8.07;;;;;;;;;;5114018;28;20423;-67
2021/07/19 05:56:15;;;;;;;12.30;8.83;;;;;;;;;;5114990;28;20415;-68
2021/07/19 05:58:41;;;;;;;11.17;8.90;;;;;;;;;;5113387;28;20426;-67
2021/07/19 06:01:07;;;;;;;12.87;8.57;;;;;;;;;;5114675;28;20439;-67
2021/07/19 06:03:33;;;;;;;10.47;7.43;;;;;;;;;;5112047;28;20419;-67
2021/07/19 06:05:59;;;;;;;14.10;9.40;;;;;;;;;;5104990;22;20481;-73
2021/07/19 06:08:25;;;;;;;9.93;8.00;;;;;;;;;;5075498;28;20797;-73
2021/07/19 06:10:51;;;;;;;11.97;9.30;;;;;;;;;;5075669;28;20415;-73
2021/07/19 06:13:17;;;;;;;11.57;8.40;;;;;;;;;;5089850;28;20770;-73
2021/07/19 06:15:45;;;;;;;9.23;7.30;;;;;;;;;;5053433;28;20422;-73
2021/07/19 06:18:11;;;;;;;13.10;8.80;;;;;;;;;;5053223;28;20481;-73
2021/07/19 06:20:37;;;;;;;10.17;7.67;;;;;;;;;;5073446;28;20393;-73
2021/07/19 06:23:03;;;;;;;10.97;8.20;;;;;;;;;;5073606;28;20401;-73
2021/07/19 06:25:30;;;;;;;12.20;8.17;;;;;;;;;;5072815;28;20560;-73
2021/07/19 06:27:56;;;;;;;11.90;8.00;;;;;;;;;;5073490;28;20431;-73
2021/07/19 06:30:22;;;;;;;9.27;7.70;;;;;;;;;;5071960;28;20944;-74
2021/07/19 06:32:49;;;;;;;9.67;8.20;;;;;;;;;;5073112;28;20842;-73
2021/07/19 06:35:15;;;;;;;11.43;8.43;;;;;;;;;;5072420;28;20460;-74
2021/07/19 06:37:41;;;;;;;9.40;7.53;;;;;;;;;;5074167;28;20982;-74
2021/07/19 06:40:08;;;;;;;12.27;9.07;;;;;;;;;;5077049;28;20523;-73
2021/07/19 06:42:34;;;;;;;15.90;8.47;;;;;;;;;;5071759;28;20405;-73
2021/07/19 06:45:00;;;;;;;11.27;8.30;;;;;;;;;;5071606;28;20457;-73
2021/07/19 06:47:27;;;;;;;13.53;9.13;;;;;;;;;;5073124;28;20455;-73
2021/07/19 06:49:54;;;;;;;13.00;7.80;;;;;;;;;;5072403;28;20910;-74
2021/07/19 06:52:21;;;;;;;9.60;8.23;;;;;;;;;;5073408;28;20780;-73
2021/07/19 06:54:47;;;;;;;11.93;9.00;;;;;;;;;;5071799;28;20453;-74
2021/07/19 06:57:13;;;;;;;13.50;9.67;;;;;;;;;;5072930;28;20449;-74
2021/07/19 06:59:39;;;;;;;11.37;8.80;;;;;;;;;;5061950;28;20461;-73
2021/07/19 07:02:05;;;;;;;10.70;8.10;;;;;;;;;;5052706;28;20401;-74
2021/07/19 07:04:31;;;;;;;9.60;8.23;;;;;;;;;;5061248;28;20453;-74
2021/07/19 07:06:57;;;;;;;8.00;6.50;;;;;;;;;;5072947;28;20409;-74
2021/07/19 07:09:23;;;;;;;8.90;6.97;;;;;;;;;;5071918;28;20433;-74
2021/07/19 07:11:49;;;;;;;10.10;8.10;;;;;;;;;;5068882;28;20428;-74
2021/07/19 07:14:15;;;;;;;10.20;8.17;;;;;;;;;;5050884;28;20536;-73
2021/07/19 07:16:42;;;;;;;7.60;6.47;;;;;;;;;;5065886;28;20892;-73
2021/07/19 07:19:08;;;;;;;9.70;7.67;;;;;;;;;;5059859;28;20449;-73
2021/07/19 07:21:34;;;;;;;9.67;7.50;;;;;;;;;;5070929;28;20439;-73
2021/07/19 07:24:03;;;;;;;10.47;7.50;;;;;;;;;;5068360;28;20455;-73
2021/07/19 07:26:29;;;;;;;12.17;7.40;;;;;;;;;;5071854;28;20428;-73
2021/07/19 07:28:55;;;;;;;8.40;7.57;;;;;;;;;;5071998;28;20471;-73
2021/07/19 07:31:27;;;;;;;10.57;7.77;;;;;;;;;;5070794;28;20913;-73
2021/07/19 07:33:55;;;;;;;10.90;7.90;;;;;;;;;;5071379;28;20413;-73
2021/07/19 07:36:22;;;;;;;10.97;7.63;;;;;;;;;;5069219;28;20481;-73
2021/07/19 07:38:48;;;;;;;11.23;7.93;;;;;;;;;;5057871;28;20432;-73
2021/07/19 07:41:14;;;;;;;10.60;7.77;;;;;;;;;;5052261;28;20416;-73
2021/07/19 07:43:40;;;;;;;11.93;7.10;;;;;;;;;;5070168;28;21219;-74
2021/07/19 07:46:06;;;;;;;13.60;7.70;;;;;;;;;;5069891;28;20530;-73
2021/07/19 07:48:32;;;;;;;14.30;8.90;;;;;;;;;;5066703;28;20433;-75
2021/07/19 07:50:59;;;;;;;15.43;7.97;;;;;;;;;;5063269;28;20437;-72
2021/07/19 07:53:25;;;;;;;10.17;7.83;;;;;;;;;;5057297;28;22126;-73
2021/07/19 07:55:51;;;;;;;11.70;8.33;;;;;;;;;;5072673;28;20452;-70
2021/07/19 07:58:17;;;;;;;10.27;7.37;;;;;;;;;;5059180;28;20461;-69
2021/07/19 08:00:43;;;;;;;11.07;7.90;;;;;;;;;;5050127;28;20512;-74
2021/07/19 08:03:09;;;;;;;10.30;7.00;;;;;;;;;;5068829;28;20421;-74
2021/07/19 08:05:35;;;;;;;10.10;7.50;;;;;;;;;;5076487;28;20459;-75
2021/07/19 08:08:01;;;;;;;9.23;7.47;;;;;;;;;;5067868;28;20512;-74
2021/07/19 08:10:27;;;;;;;9.57;7.33;;;;;;;;;;5073512;28;20448;-75
2021/07/19 08:12:53;;;;;;;12.60;7.93;;;;;;;;;;5074976;28;20408;-75
2021/07/19 08:15:19;;;;;;;10.53;7.00;;;;;;;;;;5068291;28;20796;-77
2021/07/19 08:17:46;;;;;;;9.13;6.60;;;;;;;;;;5064028;28;20456;-74
2021/07/19 08:20:12;;;;;;;16.07;8.20;;;;;;;;;;5072331;28;20519;-72
2021/07/19 08:22:38;;;;;;;11.67;6.43;;;;;;;;;;5074453;28;20440;-75
2021/07/19 08:25:05;;;;;;;10.00;7.57;;;;;;;;;;5063222;28;20429;-73
2021/07/19 08:27:31;;;;;;;9.37;6.87;;;;;;;;;;5066138;28;20812;-75
2021/07/19 08:29:57;;;;;;;6.97;6.23;;;;;;;;;;5065314;28;20428;-73
2021/07/19 08:32:24;;;;;;;9.77;6.60;;;;;;;;;;5065110;28;20417;-72
2021/07/19 08:34:50;;;;;;;9.10;6.63;;;;;;;;;;5060744;28;20459;-75
2021/07/19 08:37:16;;;;;;;9.57;6.70;;;;;;;;;;5071822;28;20464;-77
2021/07/19 08:39:43;;;;;;;9.30;6.20;;;;;;;;;;5070090;28;20431;-72
2021/07/19 08:42:15;;;;;;;7.17;5.80;;;;;;;;;;5069773;28;20448;-73
2021/07/19 08:44:41;;;;;;;10.27;7.10;;;;;;;;;;5043476;28;20447;-73
2021/07/19 08:47:08;;;;;;;10.27;7.00;;;;;;;;;;5067465;28;20433;-73
2021/07/19 08:49:34;;;;;;;10.47;7.17;;;;;;;;;;5058687;28;20486;-73
2021/07/19 08:52:02;;;;;;;10.83;6.90;;;;;;;;;;5049821;28;20445;-73
2021/07/19 08:54:32;;;;;;;13.83;7.30;;;;;;;;;;5071260;28;20444;-73
2021/07/19 08:56:58;;;;;;;10.73;6.63;;;;;;;;;;5070016;28;20467;-73
2021/07/19 08:59:25;;;;;;;10.50;7.00;;;;;;;;;;5070611;28;20428;-73
2021/07/19 09:01:51;;;;;;;8.40;6.30;;;;;;;;;;5062254;28;20590;-73
2021/07/19 09:04:21;;;;;;;13.97;7.50;;;;;;;;;;5061504;28;20465;-73
2021/07/19 09:06:48;;;;;;;8.73;7.37;;;;;;;;;;5067941;28;20878;-73
2021/07/19 09:09:14;;;;;;;7.17;6.30;;;;;;;;;;5054691;28;20482;-73
2021/07/19 09:11:51;;;;;;;9.60;7.00;;;;;;;;;;5068030;28;20868;-74
2021/07/19 09:14:17;;;;;;;9.83;6.93;;;;;;;;;;5070868;28;20440;-73
2021/07/19 09:16:44;;;;;;;8.87;5.77;;;;;;;;;;5064026;28;20859;-73
2021/07/19 09:19:11;;;;;;;7.33;6.10;;;;;;;;;;5066567;28;20419;-73
2021/07/19 09:21:38;;;;;;;6.90;5.73;;;;;;;;;;5072765;28;20810;-73
2021/07/19 09:24:06;;;;;;;7.83;5.53;;;;;;;;;;5072156;28;20945;-74
2021/07/19 09:26:32;;;;;;;10.43;6.33;;;;;;;;;;5071930;28;20790;-72
2021/07/19 09:28:59;;;;;;;10.83;6.53;;;;;;;;;;5053462;28;20537;-72
2021/07/19 09:31:32;;;;;;;7.60;5.90;;;;;;;;;;5055228;28;20447;-72
2021/07/19 09:33:59;;;;;;;7.20;5.87;;;;;;;;;;5072377;28;20412;-73
2021/07/19 09:36:27;;;;;;;6.60;5.50;;;;;;;;;;5072621;28;20519;-73
2021/07/19 09:39:19;;;;;;;11.40;6.20;;;;;;;;;;5066069;28;20423;-74
2021/07/19 09:41:45;;;;;;;10.17;6.20;;;;;;;;;;5066665;28;20545;-74
2021/07/19 09:44:11;;;;;;;8.70;5.93;;;;;;;;;;5062763;28;20836;-74
2021/07/19 09:46:37;;;;;;;6.90;5.10;;;;;;;;;;5072403;28;20499;-73
2021/07/19 09:49:04;;;;;;;7.23;5.40;;;;;;;;;;5071753;28;20508;-72
2021/07/19 09:51:34;;;;;;;8.30;5.60;;;;;;;;;;5071602;28;20516;-73
2021/07/19 09:54:10;;;;;;;7.33;6.07;;;;;;;;;;5072207;28;20421;-72
2021/07/19 09:56:36;;;;;;;6.97;5.70;;;;;;;;;;5061258;28;20904;-72
2021/07/19 09:59:07;;;;;;;7.57;6.00;;;;;;;;;;5068998;28;20432;-72
2021/07/19 10:01:34;;;;;;;9.47;6.60;;;;;;;;;;5070022;28;20470;-72
2021/07/19 10:04:11;;;;;;;10.13;6.50;;;;;;;;;;5056662;28;20420;-73
2021/07/19 10:06:38;;;;;;;6.73;5.43;;;;;;;;;;5069849;28;20523;-72
2021/07/19 10:09:06;;;;;;;6.77;5.23;;;;;;;;;;5072499;28;20497;-72
2021/07/19 10:11:34;;;;;;;11.90;5.80;;;;;;;;;;5066284;28;20429;-73
2021/07/19 10:14:00;;;;;;;9.07;5.20;;;;;;;;;;5070398;28;20795;-72
2021/07/19 10:16:31;;;;;;;8.23;4.97;;;;;;;;;;5049801;28;20430;-72
2021/07/19 10:18:57;;;;;;;6.80;5.90;;;;;;;;;;5059594;28;20745;-73
2021/07/19 10:21:26;;;;;;;7.97;5.43;;;;;;;;;;5066797;28;20466;-72
2021/07/19 10:24:06;;;;;;;9.77;5.60;;;;;;;;;;5071525;28;20512;-72
2021/07/19 10:26:33;;;;;;;8.70;5.20;;;;;;;;;;5069120;28;20490;-73
2021/07/19 10:29:00;;;;;;;7.73;5.00;;;;;;;;;;5071868;28;20419;-75
2021/07/19 10:31:27;;;;;;;6.37;4.67;;;;;;;;;;5069897;28;20421;-73
2021/07/19 10:33:53;;;;;;;10.83;4.80;;;;;;;;;;5069579;28;20731;-73
2021/07/19 10:36:27;;;;;;;5.93;4.33;;;;;;;;;;5069669;28;20803;-74
2021/07/19 10:38:59;;;;;;;5.53;4.60;;;;;;;;;;5069876;28;20458;-72
2021/07/19 10:41:25;;;;;;;5.00;4.40;;;;;;;;;;5068101;28;20516;-72
2021/07/19 10:44:14;;;;;;;8.20;4.93;;;;;;;;;;5068564;28;20813;-72
2021/07/19 10:46:41;;;;;;;6.90;4.57;;;;;;;;;;5066479;28;20424;-73
2021/07/19 10:49:14;;;;;;;5.23;4.10;;;;;;;;;;5069701;28;20444;-73
2021/07/19 10:51:45;;;;;;;10.70;5.00;;;;;;;;;;5070518;28;20431;-73
2021/07/19 10:54:14;;;;;;;8.33;5.13;;;;;;;;;;5063455;28;20425;-73
2021/07/19 10:56:40;;;;;;;5.10;4.03;;;;;;;;;;5061331;28;20444;-73
2021/07/19 10:59:07;;;;;;;6.80;4.73;;;;;;;;;;5080129;28;20419;-73
2021/07/19 11:01:33;;;;;;;6.73;4.77;;;;;;;;;;5084273;28;20474;-73
2021/07/19 11:04:00;;;;;;;8.27;4.30;;;;;;;;;;5077443;28;20493;-73
2021/07/19 11:06:32;;;;;;;6.23;3.60;;;;;;;;;;5069031;28;20421;-73
2021/07/19 11:08:59;;;;;;;5.40;4.20;;;;;;;;;;5067698;28;20422;-75
2021/07/19 11:11:36;;;;;;;5.00;4.30;;;;;;;;;;5050300;28;20455;-71
2021/07/19 11:14:03;;;;;;;6.90;4.90;;;;;;;;;;5060050;28;20419;-71
2021/07/19 11:16:44;;;;;;;5.20;3.90;;;;;;;;;;5060053;28;20424;-71
2021/07/19 11:19:10;;;;;;;7.90;4.70;;;;;;;;;;5057358;28;20483;-71
2021/07/19 11:21:36;;;;;;;4.93;3.63;;;;;;;;;;5055584;28;20421;-71
2021/07/19 11:24:10;;;;;;;6.30;4.07;;;;;;;;;;5060354;28;20783;-71
2021/07/19 11:26:47;;;;;;;5.30;3.60;;;;;;;;;;5068572;28;20417;-71
2021/07/19 11:29:13;;;;;;;6.47;4.03;;;;;;;;;;5060506;28;20428;-71
2021/07/19 11:31:39;;;;;;;4.00;3.37;;;;;;;;;;5063254;28;20460;-72
2021/07/19 11:34:06;;;;;;;8.70;4.57;;;;;;;;;;5070448;28;20409;-70
2021/07/19 11:36:33;;;;;;;6.30;4.27;;;;;;;;;;5066889;28;20424;-73
2021/07/19 11:39:01;;;;;;;5.40;2.80;;;;;;;;;;5065759;28;20421;-74
2021/07/19 11:41:28;;;;;;;7.30;3.73;;;;;;;;;;5070277;28;20432;-75
2021/07/19 11:43:56;;;;;;;5.83;3.80;;;;;;;;;;5070746;28;20436;-74
2021/07/19 11:46:30;;;;;;;7.53;4.20;;;;;;;;;;5069508;28;20474;-73
2021/07/19 11:49:06;;;;;;;5.67;2.97;;;;;;;;;;5065002;28;21287;-75
2021/07/19 11:51:33;;;;;;;4.87;3.33;;;;;;;;;;5070586;28;20434;-72
2021/07/19 11:53:59;;;;;;;5.60;3.43;;;;;;;;;;5070665;28;20741;-72
2021/07/19 11:56:26;;;;;;;4.20;2.70;;;;;;;;;;5068887;28;20416;-73
2021/07/19 11:58:56;;;;;;;3.80;2.90;;;;;;;;;;5070467;28;20424;-75
2021/07/19 12:01:23;;;;;;;8.40;3.67;;;;;;;;;;5052044;28;20408;-71
2021/07/19 12:03:52;;;;;;;6.90;3.10;;;;;;;;;;5065168;28;20429;-74
2021/07/19 12:06:18;;;;;;;5.00;2.87;;;;;;;;;;5066025;28;20424;-74
2021/07/19 12:08:51;;;;;;;5.77;3.00;;;;;;;;;;5076551;28;20951;-72
2021/07/19 12:11:17;;;;;;;5.70;3.40;;;;;;;;;;5067993;28;20421;-74
2021/07/19 12:13:44;;;;;;;5.73;3.13;;;;;;;;;;5070381;28;20426;-74
2021/07/19 12:16:10;;;;;;;5.87;2.70;;;;;;;;;;5073037;28;20452;-72
2021/07/19 12:18:37;;;;;;;7.80;3.03;;;;;;;;;;5069687;28;20456;-69
2021/07/19 12:21:03;;;;;;;4.33;2.73;;;;;;;;;;5072250;28;20921;-76
2021/07/19 12:23:59;;;;;;;5.50;3.53;;;;;;;;;;5061813;28;20771;-76
2021/07/19 12:26:31;;;;;;;6.17;3.30;;;;;;;;;;5066850;28;20545;-76
2021/07/19 12:28:59;;;;;;;6.23;3.10;;;;;;;;;;5054742;28;20436;-76
2021/07/19 12:31:25;;;;;;;3.47;2.60;;;;;;;;;;5070459;28;21010;-73
2021/07/19 12:33:51;;;;;;;7.03;3.27;;;;;;;;;;5071167;28;20404;-74
2021/07/19 12:36:20;;;;;;;5.93;3.07;;;;;;;;;;5073837;28;20463;-72
2021/07/19 12:38:47;;;;;;;6.53;2.97;;;;;;;;;;5069139;28;20440;-74
2021/07/19 12:41:15;;;;;;;6.33;2.83;;;;;;;;;;5064686;28;20429;-71
2021/07/19 12:43:41;;;;;;;7.57;3.90;;;;;;;;;;5069991;28;20436;-72
2021/07/19 12:46:09;;;;;;;4.90;3.40;;;;;;;;;;5072365;28;20443;-72
2021/07/19 12:48:35;;;;;;;7.53;3.20;;;;;;;;;;5069050;28;20424;-73
2021/07/19 12:51:02;;;;;;;6.40;3.20;;;;;;;;;;5052482;28;20432;-74
2021/07/19 12:53:33;;;;;;;5.80;3.33;;;;;;;;;;5072194;28;20501;-73
2021/07/19 12:56:09;;;;;;;5.90;3.37;;;;;;;;;;5067355;28;20433;-73
2021/07/19 12:58:35;;;;;;;5.60;3.27;;;;;;;;;;5060363;28;20452;-71
2021/07/19 13:01:11;;;;;;;5.43;2.80;;;;;;;;;;5074518;28;20416;-71
2021/07/19 13:03:37;;;;;;;5.40;3.10;;;;;;;;;;5073070;28;20897;-72
2021/07/19 13:06:05;;;;;;;7.20;3.20;;;;;;;;;;5072947;28;20471;-71
2021/07/19 13:08:32;;;;;;;3.37;2.87;;;;;;;;;;5072227;28;20432;-72
2021/07/19 13:11:11;;;;;;;4.33;2.50;;;;;;;;;;5073650;28;20416;-71
2021/07/19 13:13:37;;;;;;;4.40;2.63;;;;;;;;;;5062453;28;20460;-70
2021/07/19 13:16:03;;;;;;;4.10;2.50;;;;;;;;;;5070235;28;20923;-72
2021/07/19 13:18:31;;;;;;;2.93;2.13;;;;;;;;;;5071776;28;20460;-74
2021/07/19 13:21:04;;;;;;;5.13;3.07;;;;;;;;;;5072407;28;20416;-72
2021/07/19 13:23:35;;;;;;;6.70;2.57;;;;;;;;;;5063690;28;20991;-73
2021/07/19 13:26:10;;;;;;;4.70;2.90;;;;;;;;;;5074280;28;20500;-76
2021/07/19 13:28:36;;;;;;;3.83;2.83;;;;;;;;;;5065626;28;20562;-73
2021/07/19 13:31:03;;;;;;;3.97;2.47;;;;;;;;;;5046931;28;20421;-71
2021/07/19 13:33:30;;;;;;;3.80;2.87;;;;;;;;;;5075922;28;20483;-71
2021/07/19 13:35:57;;;;;;;3.63;2.67;;;;;;;;;;5073395;28;20527;-72
2021/07/19 13:38:32;;;;;;;4.07;2.90;;;;;;;;;;5072013;28;20460;-72
2021/07/19 13:40:58;;;;;;;7.27;3.10;;;;;;;;;;5075284;28;20420;-70
2021/07/19 13:43:24;;;;;;;6.60;2.60;;;;;;;;;;5066796;28;20424;-73
2021/07/19 13:45:50;;;;;;;4.57;3.37;;;;;;;;;;5073945;28;20449;-70
2021/07/19 13:48:16;;;;;;;3.97;2.57;;;;;;;;;;5071545;28;20432;-74
2021/07/19 13:50:42;;;;;;;7.40;2.97;;;;;;;;;;5053358;28;20412;-72
2021/07/19 13:53:09;;;;;;;5.43;2.77;;;;;;;;;;5071229;28;20440;-74
2021/07/19 13:55:38;;;;;;;6.30;2.30;;;;;;;;;;5070479;28;20447;-70
2021/07/19 13:58:05;;;;;;;4.17;2.60;;;;;;;;;;5070734;28;20502;-70
2021/07/19 14:00:32;;;;;;;4.37;2.77;;;;;;;;;;5073304;28;20426;-71
2021/07/19 14:02:58;;;;;;;3.27;2.30;;;;;;;;;;5072962;28;20421;-72
2021/07/19 14:05:25;;;;;;;5.53;2.80;;;;;;;;;;5064669;28;20505;-71
2021/07/19 14:07:51;;;;;;;4.03;2.30;;;;;;;;;;5070890;28;20507;-71
2021/07/19 14:10:17;;;;;;;5.27;2.97;;;;;;;;;;5071360;28;20427;-72
2021/07/19 14:12:43;;;;;;;8.87;3.33;;;;;;;;;;5068129;28;20940;-73
2021/07/19 14:15:10;;;;;;;3.83;2.57;;;;;;;;;;5070415;28;20440;-71
2021/07/19 14:17:36;;;;;;;4.00;2.47;;;;;;;;;;5068498;28;20452;-70
2021/07/19 14:20:02;;;;;;;4.90;2.83;;;;;;;;;;5067881;28;20416;-74
2021/07/19 14:22:28;;;;;;;10.50;3.27;;;;;;;;;;5072232;28;20888;-73
2021/07/19 14:24:54;;;;;;;8.30;3.03;;;;;;;;;;5054161;28;20527;-73
2021/07/19 14:27:20;;;;;;;5.07;2.90;;;;;;;;;;5071427;28;20425;-73
2021/07/19 14:29:46;;;;;;;4.33;2.73;;;;;;;;;;5064381;28;20425;-75
2021/07/19 14:32:12;;;;;;;9.70;3.20;;;;;;;;;;5068724;28;20416;-74